Time;durP1;ratioP1;P1;durP2;ratioP2;P2;SDS_P1;SDS_P2;PMS_P1;PMS_P2;Temp;Humidity;BMP_temperature;BMP_pressure;BME280_temperature;BME280_humidity;BME280_pressure;Samples;Min_cycle;Max_cycle;Signal;HPM_P1;HPM_P2
2022/03/27 00:00:40;;;;;;;6.05;2.42;;;11.40;86.00;;;;;;5014658;28;20034;-67
2022/03/27 00:03:06;;;;;;;3.08;2.10;;;11.40;85.90;;;;;;5013423;28;20044;-67
2022/03/27 00:05:32;;;;;;;4.07;2.78;;;11.40;85.90;;;;;;5014494;28;20033;-67
2022/03/27 00:07:58;;;;;;;5.57;2.38;;;11.30;86.40;;;;;;5014218;28;20045;-67
2022/03/27 00:10:23;;;;;;;4.50;2.30;;;11.30;85.80;;;;;;5024811;28;20031;-67
2022/03/27 00:12:49;;;;;;;4.78;2.45;;;11.30;85.90;;;;;;5014108;28;20466;-67
2022/03/27 00:15:15;;;;;;;68.22;3.85;;;11.20;85.90;;;;;;5014242;28;20049;-67
2022/03/27 00:17:44;;;;;;;15.93;2.78;;;11.20;85.80;;;;;;5028268;28;20470;-67
2022/03/27 00:20:10;;;;;;;79.32;4.28;;;11.20;85.80;;;;;;5034039;28;20041;-67
2022/03/27 00:22:39;;;;;;;46.78;3.95;;;11.20;85.80;;;;;;5033670;28;20044;-67
2022/03/27 00:25:07;;;;;;;66.28;3.83;;;11.20;85.80;;;;;;5032327;28;20030;-67
2022/03/27 00:27:34;;;;;;;79.32;4.50;;;11.20;85.70;;;;;;5033710;28;20029;-67
2022/03/27 00:30:03;;;;;;;74.03;3.65;;;11.20;85.60;;;;;;5024050;28;20033;-67
2022/03/27 00:32:29;;;;;;;222.80;6.43;;;11.20;85.60;;;;;;5026058;28;20049;-68
2022/03/27 00:34:54;;;;;;;78.03;3.10;;;11.10;85.70;;;;;;5013946;28;20646;-67
2022/03/27 00:37:20;;;;;;;223.35;5.97;;;11.10;85.70;;;;;;5026077;28;20041;-67
2022/03/27 00:39:46;;;;;;;134.20;4.90;;;11.10;85.70;;;;;;5023310;28;20036;-68
2022/03/27 00:42:11;;;;;;;213.20;7.40;;;11.00;85.70;;;;;;5030314;28;20034;-68
2022/03/27 00:44:38;;;;;;;152.38;4.20;;;11.00;85.80;;;;;;5013019;28;20026;-67
2022/03/27 00:47:05;;;;;;;177.80;4.70;;;11.00;85.80;;;;;;5013316;28;20053;-68
2022/03/27 00:49:35;;;;;;;73.05;2.65;;;10.90;85.70;;;;;;5024179;28;20065;-68
2022/03/27 00:52:01;;;;;;;59.22;2.45;;;10.90;85.80;;;;;;5027464;28;20461;-67
2022/03/27 00:54:27;;;;;;;22.52;2.30;;;10.90;85.80;;;;;;5013414;28;20397;-66
2022/03/27 00:56:53;;;;;;;29.23;2.83;;;10.80;85.80;;;;;;5013188;28;20038;-67
2022/03/27 00:59:18;;;;;;;56.55;3.05;;;10.80;85.90;;;;;;5023963;28;20029;-67
2022/03/27 01:01:44;;;;;;;45.67;2.90;;;10.80;85.90;;;;;;5032690;28;20060;-67
2022/03/27 01:04:10;;;;;;;75.88;2.83;;;10.70;86.00;;;;;;5032908;28;20033;-67
2022/03/27 01:06:38;;;;;;;14.93;1.58;;;10.70;86.20;;;;;;5026664;28;20050;-67
2022/03/27 01:11:51;;;;;;;24.42;2.20;;;10.70;86.50;;;;;;5032919;28;20095;-67
2022/03/27 01:14:24;;;;;;;31.38;2.40;;;10.60;86.50;;;;;;5031073;28;20087;-67
2022/03/27 01:17:10;;;;;;;9.32;2.15;;;10.60;86.50;;;;;;5029028;28;20048;-67
2022/03/27 01:19:40;;;;;;;40.08;2.60;;;10.50;86.50;;;;;;5027129;28;20033;-67
2022/03/27 01:22:06;;;;;;;54.92;3.05;;;10.50;87.10;;;;;;5032622;28;20116;-67
2022/03/27 01:24:32;;;;;;;150.23;4.60;;;10.50;86.50;;;;;;5032306;28;20436;-67
2022/03/27 01:26:57;;;;;;;65.32;3.60;;;10.50;86.40;;;;;;5031955;28;20040;-67
2022/03/27 01:29:23;;;;;;;90.45;4.45;;;10.40;86.20;;;;;;5032406;28;20083;-67
2022/03/27 01:31:51;;;;;;;87.45;3.00;;;10.40;85.90;;;;;;5031424;28;20033;-67
2022/03/27 01:34:17;;;;;;;60.78;2.55;;;10.50;85.80;;;;;;5024956;28;20041;-67
2022/03/27 01:36:43;;;;;;;88.85;2.83;;;10.40;85.60;;;;;;5022390;28;20042;-67
2022/03/27 01:39:12;;;;;;;56.30;2.35;;;10.40;85.70;;;;;;5027995;28;20033;-67
2022/03/27 01:41:39;;;;;;;51.83;2.35;;;10.40;85.80;;;;;;5023529;28;20120;-67
2022/03/27 01:44:07;;;;;;;81.65;2.40;;;10.30;85.90;;;;;;5013865;28;20396;-67
2022/03/27 01:46:35;;;;;;;26.92;1.33;;;10.30;86.50;;;;;;5023998;28;20515;-67
2022/03/27 01:49:03;;;;;;;25.73;1.73;;;10.30;86.00;;;;;;5031874;28;20099;-67
2022/03/27 01:51:29;;;;;;;29.90;1.63;;;10.30;86.10;;;;;;5031880;28;20493;-67
2022/03/27 01:53:55;;;;;;;78.82;2.13;;;10.20;86.10;;;;;;5036056;28;20076;-68
2022/03/27 01:56:21;;;;;;;13.18;1.40;;;10.20;86.10;;;;;;5032265;28;20049;-67
2022/03/27 01:58:47;;;;;;;19.02;1.48;;;10.10;86.20;;;;;;5016408;28;20026;-67
2022/03/27 02:01:13;;;;;;;21.92;1.30;;;10.10;86.20;;;;;;5026219;28;20044;-67
2022/03/27 02:03:38;;;;;;;2.03;1.40;;;10.10;86.30;;;;;;5029904;28;20033;-67
2022/03/27 02:06:05;;;;;;;11.35;1.38;;;10.10;86.40;;;;;;5016741;28;20044;-67
2022/03/27 02:08:34;;;;;;;9.85;1.50;;;10.00;86.60;;;;;;5016084;28;20039;-67
2022/03/27 02:11:01;;;;;;;28.17;1.33;;;9.90;86.80;;;;;;5022356;28;20033;-67
2022/03/27 02:13:28;;;;;;;9.68;1.25;;;9.90;87.00;;;;;;5022575;28;20038;-67
2022/03/27 02:15:57;;;;;;;29.65;1.80;;;9.80;86.90;;;;;;5014654;28;20038;-67
2022/03/27 02:18:25;;;;;;;65.93;2.47;;;9.90;87.00;;;;;;5031660;28;20029;-67
2022/03/27 02:20:51;;;;;;;39.92;1.67;;;9.90;87.10;;;;;;5031287;28;20041;-67
2022/03/27 02:23:16;;;;;;;51.55;2.85;;;9.80;87.10;;;;;;5020025;28;20036;-67
2022/03/27 02:25:42;;;;;;;38.55;1.60;;;9.70;87.10;;;;;;5030152;28;20049;-67
2022/03/27 02:28:08;;;;;;;24.88;1.58;;;9.70;87.00;;;;;;5032386;28;20044;-67
2022/03/27 02:30:34;;;;;;;49.40;2.10;;;9.70;87.20;;;;;;5030608;28;20028;-67
2022/03/27 02:33:00;;;;;;;41.22;2.13;;;9.70;87.40;;;;;;5031626;28;20059;-67
2022/03/27 02:35:26;;;;;;;8.30;1.33;;;9.70;87.50;;;;;;5012337;28;20481;-68
2022/03/27 02:37:52;;;;;;;60.08;2.10;;;9.60;87.30;;;;;;5023376;28;20540;-67
2022/03/27 02:40:17;;;;;;;31.30;2.13;;;9.60;87.30;;;;;;5031460;28;20033;-67
2022/03/27 02:42:43;;;;;;;70.65;2.80;;;9.60;87.20;;;;;;5031239;28;20037;-67
2022/03/27 02:45:09;;;;;;;38.05;2.00;;;9.50;87.20;;;;;;5023954;28;20080;-67
2022/03/27 02:47:36;;;;;;;34.58;1.52;;;9.50;87.30;;;;;;5011400;28;20037;-67
2022/03/27 02:50:04;;;;;;;31.98;1.75;;;9.50;87.30;;;;;;5018523;28;20079;-67
2022/03/27 02:52:31;;;;;;;85.88;3.60;;;9.40;87.20;;;;;;5030397;28;20120;-67
2022/03/27 02:54:58;;;;;;;33.45;1.70;;;9.40;87.10;;;;;;5031237;28;20042;-67
2022/03/27 02:57:24;;;;;;;42.80;2.38;;;9.40;87.00;;;;;;5016317;28;20059;-67
2022/03/27 02:59:53;;;;;;;23.63;2.17;;;9.40;86.80;;;;;;5010908;28;20377;-67
2022/03/27 03:02:22;;;;;;;17.27;1.13;;;9.40;86.80;;;;;;5016100;28;21287;-67
2022/03/27 03:04:48;;;;;;;41.45;2.03;;;9.40;86.60;;;;;;5011635;28;20030;-67
2022/03/27 03:07:14;;;;;;;30.63;1.48;;;9.40;86.60;;;;;;5013978;28;20032;-67
2022/03/27 03:09:41;;;;;;;31.38;1.83;;;9.40;86.60;;;;;;5030938;28;20487;-67
2022/03/27 03:12:07;;;;;;;27.80;1.88;;;9.40;86.60;;;;;;5030139;28;20030;-67
2022/03/27 03:14:33;;;;;;;20.80;1.38;;;9.40;86.60;;;;;;5030940;28;20094;-67
2022/03/27 03:17:01;;;;;;;22.42;1.30;;;9.30;86.50;;;;;;5014075;28;20473;-67
2022/03/27 03:19:28;;;;;;;9.35;1.05;;;9.30;86.40;;;;;;5014419;28;20038;-67
2022/03/27 03:21:54;;;;;;;15.15;1.55;;;9.30;86.40;;;;;;5033680;28;20595;-67
2022/03/27 03:24:20;;;;;;;4.85;1.08;;;9.30;86.40;;;;;;5034819;28;20112;-67
2022/03/27 03:26:47;;;;;;;10.98;1.25;;;9.20;86.40;;;;;;5019858;28;20080;-67
2022/03/27 03:29:13;;;;;;;4.60;0.90;;;9.20;86.50;;;;;;5015109;28;20037;-67
2022/03/27 03:31:39;;;;;;;9.75;1.00;;;9.20;86.60;;;;;;5016504;28;20120;-67
2022/03/27 03:34:05;;;;;;;28.77;1.35;;;9.10;86.70;;;;;;5034155;28;20160;-67
2022/03/27 03:36:30;;;;;;;9.63;1.25;;;9.10;86.90;;;;;;5032231;28;20048;-67
2022/03/27 03:38:56;;;;;;;6.78;1.48;;;9.00;87.10;;;;;;5015020;28;20466;-67
2022/03/27 03:41:22;;;;;;;4.53;1.30;;;9.00;87.10;;;;;;5016681;28;20607;-67
2022/03/27 03:43:47;;;;;;;2.03;1.20;;;9.00;87.10;;;;;;5034542;28;20167;-67
2022/03/27 03:46:13;;;;;;;3.45;1.10;;;9.00;87.00;;;;;;5018107;28;20515;-67
2022/03/27 03:48:39;;;;;;;2.17;1.10;;;9.00;87.00;;;;;;5013918;28;20460;-67
2022/03/27 03:51:05;;;;;;;3.15;1.33;;;9.00;86.90;;;;;;5030320;28;20040;-67
2022/03/27 03:53:31;;;;;;;2.78;1.20;;;9.00;86.90;;;;;;5034257;28;20034;-67
2022/03/27 03:55:57;;;;;;;5.82;2.28;;;9.00;86.90;;;;;;5016116;28;20049;-67
2022/03/27 03:58:22;;;;;;;5.75;1.05;;;9.00;86.90;;;;;;5024509;28;20033;-67
2022/03/27 04:00:50;;;;;;;5.57;1.15;;;9.00;86.90;;;;;;5017409;28;20083;-67
2022/03/27 04:03:16;;;;;;;6.65;1.00;;;9.00;86.90;;;;;;5018846;28;20038;-67
2022/03/27 04:05:42;;;;;;;3.80;1.23;;;9.00;86.80;;;;;;5018494;28;20052;-67
2022/03/27 04:08:08;;;;;;;6.68;1.40;;;8.90;86.70;;;;;;5034063;28;20462;-67
2022/03/27 04:10:34;;;;;;;3.13;1.40;;;8.90;86.60;;;;;;5028480;28;20029;-67
2022/03/27 04:12:59;;;;;;;3.13;1.35;;;8.90;86.60;;;;;;5014438;28;20113;-67
2022/03/27 04:15:25;;;;;;;9.55;1.83;;;8.90;86.70;;;;;;5030715;28;20033;-67
2022/03/27 04:17:51;;;;;;;4.75;1.50;;;8.90;86.80;;;;;;5022281;28;20473;-67
2022/03/27 04:20:18;;;;;;;4.10;1.65;;;8.90;86.70;;;;;;5019587;28;20833;-67
2022/03/27 04:22:45;;;;;;;6.95;2.30;;;8.90;86.60;;;;;;5033441;28;20088;-67
2022/03/27 04:25:12;;;;;;;11.30;2.08;;;8.80;86.40;;;;;;5027220;28;20068;-67
2022/03/27 04:27:38;;;;;;;13.35;1.70;;;8.90;86.40;;;;;;5021898;28;20072;-67
2022/03/27 04:30:09;;;;;;;11.10;2.08;;;8.90;86.40;;;;;;5032629;28;20030;-67
2022/03/27 04:32:36;;;;;;;7.40;2.20;;;8.90;86.40;;;;;;5034028;28;20034;-67
2022/03/27 04:35:06;;;;;;;7.18;2.15;;;8.80;86.30;;;;;;5020430;28;20069;-67
2022/03/27 04:37:37;;;;;;;8.90;2.05;;;8.80;86.40;;;;;;5033024;28;20045;-67
2022/03/27 04:40:03;;;;;;;10.63;2.47;;;8.80;86.40;;;;;;5032261;28;20037;-69
2022/03/27 04:42:29;;;;;;;10.93;2.45;;;8.70;86.40;;;;;;5032228;28;20052;-66
2022/03/27 04:44:56;;;;;;;11.75;2.10;;;8.80;86.60;;;;;;5031670;28;20477;-68
2022/03/27 04:47:21;;;;;;;10.18;2.30;;;8.70;86.70;;;;;;5032326;28;20033;-67
2022/03/27 04:49:47;;;;;;;10.00;2.97;;;8.70;86.80;;;;;;5032432;28;20022;-67
2022/03/27 04:52:14;;;;;;;9.38;2.83;;;8.60;86.90;;;;;;5031598;28;20359;-67
2022/03/27 04:54:40;;;;;;;10.85;2.00;;;8.60;87.00;;;;;;5029037;28;20033;-67
2022/03/27 04:57:06;;;;;;;9.23;2.25;;;8.60;87.30;;;;;;5031989;28;20041;-67
2022/03/27 04:59:32;;;;;;;8.90;2.03;;;8.60;87.40;;;;;;5031617;28;20021;-68
2022/03/27 05:01:58;;;;;;;11.75;2.42;;;8.50;87.50;;;;;;5032758;28;20492;-67
2022/03/27 05:04:25;;;;;;;4.80;1.63;;;8.50;87.50;;;;;;5033154;28;20033;-68
2022/03/27 05:06:51;;;;;;;4.97;1.65;;;8.50;87.50;;;;;;5032106;28;20116;-68
2022/03/27 05:09:20;;;;;;;5.07;1.60;;;8.50;87.60;;;;;;5032978;28;20113;-67
2022/03/27 05:11:47;;;;;;;5.90;1.88;;;8.50;87.70;;;;;;5032248;28;20033;-67
2022/03/27 05:14:12;;;;;;;7.07;1.83;;;8.60;87.70;;;;;;5032848;28;20032;-67
2022/03/27 05:16:38;;;;;;;4.55;1.52;;;8.50;87.70;;;;;;5032560;28;20041;-67
2022/03/27 05:19:04;;;;;;;3.72;1.42;;;8.50;87.70;;;;;;5032062;28;20125;-67
2022/03/27 05:21:33;;;;;;;10.32;2.10;;;8.50;87.70;;;;;;5032139;28;20040;-67
2022/03/27 05:23:59;;;;;;;6.03;1.85;;;8.60;88.10;;;;;;5032392;28;20380;-67
2022/03/27 05:26:26;;;;;;;4.63;1.60;;;8.50;87.80;;;;;;5020464;28;20034;-67
2022/03/27 05:28:52;;;;;;;5.32;1.88;;;8.60;87.90;;;;;;5025918;28;20022;-67
2022/03/27 05:31:17;;;;;;;13.27;2.22;;;8.50;88.00;;;;;;5024936;28;20065;-67
2022/03/27 05:33:43;;;;;;;12.25;2.42;;;8.60;88.20;;;;;;5018403;28;20068;-67
2022/03/27 05:36:10;;;;;;;23.05;2.78;;;8.50;88.10;;;;;;5032535;28;20110;-67
2022/03/27 05:38:42;;;;;;;7.78;2.05;;;8.60;88.20;;;;;;5019386;28;20049;-67
2022/03/27 05:41:09;;;;;;;6.35;2.28;;;8.60;88.20;;;;;;5029824;28;20473;-67
2022/03/27 05:43:35;;;;;;;7.75;1.98;;;8.60;88.20;;;;;;5032538;28;20021;-67
2022/03/27 05:46:02;;;;;;;19.73;1.92;;;8.60;88.30;;;;;;5017830;28;20374;-67
2022/03/27 05:48:28;;;;;;;5.40;1.90;;;8.70;88.40;;;;;;5011883;28;20040;-67
2022/03/27 05:50:54;;;;;;;10.05;2.65;;;8.70;88.50;;;;;;5027238;28;20105;-67
2022/03/27 05:53:23;;;;;;;12.65;2.13;;;8.70;88.50;;;;;;5023338;28;20467;-67
2022/03/27 05:55:48;;;;;;;8.73;1.88;;;8.70;88.40;;;;;;5011319;28;20058;-67
2022/03/27 05:58:16;;;;;;;7.53;1.80;;;8.60;88.40;;;;;;5012434;28;20041;-67
2022/03/27 06:00:42;;;;;;;14.38;2.38;;;8.60;88.60;;;;;;5014827;28;20033;-67
2022/03/27 06:03:08;;;;;;;9.50;2.40;;;8.70;88.70;;;;;;5031287;28;20031;-67
2022/03/27 06:05:33;;;;;;;17.23;3.30;;;8.60;88.80;;;;;;5030749;28;20601;-67
2022/03/27 06:07:59;;;;;;;14.23;2.70;;;8.60;89.00;;;;;;5030740;28;20030;-67
2022/03/27 06:10:34;;;;;;;9.38;2.50;;;8.60;89.10;;;;;;5030862;28;20037;-67
2022/03/27 06:13:00;;;;;;;20.17;3.20;;;8.60;89.20;;;;;;5031854;28;20388;-67
2022/03/27 06:15:33;;;;;;;8.60;2.60;;;8.70;89.50;;;;;;5024842;28;20490;-67
2022/03/27 06:17:59;;;;;;;14.52;2.33;;;8.70;89.80;;;;;;5012433;28;20062;-67
2022/03/27 06:20:27;;;;;;;19.80;3.45;;;8.70;89.80;;;;;;5031408;28;20026;-67
2022/03/27 06:22:54;;;;;;;23.20;3.33;;;8.80;90.00;;;;;;5029735;28;20037;-67
2022/03/27 06:25:22;;;;;;;27.02;4.95;;;8.80;90.10;;;;;;5027326;28;20037;-67
2022/03/27 06:27:48;;;;;;;25.95;3.67;;;8.80;90.30;;;;;;5031601;28;20037;-67
2022/03/27 06:30:23;;;;;;;29.70;4.78;;;8.90;90.40;;;;;;5014332;28;20034;-67
2022/03/27 06:32:51;;;;;;;19.25;3.50;;;8.90;90.50;;;;;;5011662;28;20164;-67
2022/03/27 06:35:19;;;;;;;20.35;2.97;;;8.90;90.60;;;;;;5029368;28;20041;-67
2022/03/27 06:37:45;;;;;;;25.58;3.92;;;8.90;90.60;;;;;;5030825;28;20053;-67
2022/03/27 06:40:13;;;;;;;28.88;4.90;;;9.00;90.70;;;;;;5012256;28;20018;-67
2022/03/27 06:42:40;;;;;;;33.90;5.07;;;9.00;90.80;;;;;;5011681;28;20025;-67
2022/03/27 06:45:06;;;;;;;21.55;4.97;;;9.10;91.00;;;;;;5017939;28;20253;-67
2022/03/27 06:47:33;;;;;;;27.33;5.20;;;9.10;91.10;;;;;;5017293;28;20389;-68
2022/03/27 06:50:01;;;;;;;39.65;5.63;;;9.20;91.30;;;;;;5011590;28;20048;-69
2022/03/27 06:52:27;;;;;;;30.02;6.05;;;9.20;91.50;;;;;;5012579;28;20029;-68
2022/03/27 06:54:54;;;;;;;27.25;4.20;;;9.30;91.50;;;;;;5030685;28;20064;-67
2022/03/27 06:57:20;;;;;;;28.08;5.03;;;9.20;91.70;;;;;;5030627;28;20038;-68
2022/03/27 07:05:20;;;;;;;33.53;4.30;;;9.30;91.90;;;;;;5028697;28;20377;-67
2022/03/27 07:07:46;;;;;;;30.80;5.00;;;9.30;91.90;;;;;;5011469;28;20116;-67
2022/03/27 07:10:11;;;;;;;23.75;5.10;;;9.30;92.00;;;;;;5013426;28;20038;-67
2022/03/27 07:12:38;;;;;;;37.60;5.43;;;9.40;92.00;;;;;;5011628;28;20493;-67
2022/03/27 07:15:05;;;;;;;36.20;4.80;;;9.40;92.10;;;;;;5030317;28;20096;-67
2022/03/27 07:17:31;;;;;;;38.03;6.20;;;9.50;92.00;;;;;;5030017;28;20358;-67
2022/03/27 07:19:56;;;;;;;47.50;7.35;;;9.50;92.00;;;;;;5029621;28;20036;-66
2022/03/27 07:22:22;;;;;;;29.40;5.07;;;9.50;92.20;;;;;;5029877;28;20064;-67
2022/03/27 07:24:48;;;;;;;47.92;6.32;;;9.50;92.20;;;;;;5029270;28;20461;-66
2022/03/27 07:27:14;;;;;;;42.63;7.53;;;9.40;92.30;;;;;;5028810;28;20059;-66
2022/03/27 07:29:40;;;;;;;27.65;4.97;;;9.40;92.30;;;;;;5029924;28;20397;-70
2022/03/27 07:32:07;;;;;;;23.73;3.80;;;9.40;92.50;;;;;;5027563;28;20061;-67
2022/03/27 07:34:33;;;;;;;35.70;5.03;;;9.40;92.50;;;;;;5025804;28;20026;-67
2022/03/27 07:36:59;;;;;;;40.38;5.07;;;9.40;92.40;;;;;;5028572;28;20046;-67
2022/03/27 07:39:25;;;;;;;36.80;6.35;;;9.40;92.30;;;;;;5027702;28;20033;-68
2022/03/27 07:41:51;;;;;;;33.55;4.78;;;9.40;92.30;;;;;;5028472;28;20030;-68
2022/03/27 07:44:17;;;;;;;41.28;4.15;;;9.40;92.30;;;;;;5028541;28;20025;-69
2022/03/27 07:46:42;;;;;;;25.90;4.40;;;9.40;92.30;;;;;;5027668;28;20045;-69
2022/03/27 07:49:09;;;;;;;35.35;5.25;;;9.50;92.50;;;;;;5028743;28;20053;-68
2022/03/27 07:51:35;;;;;;;35.88;5.38;;;9.40;92.70;;;;;;5028282;28;20492;-69
2022/03/27 07:54:01;;;;;;;41.45;5.90;;;9.50;92.80;;;;;;5027313;28;20033;-68
2022/03/27 07:56:29;;;;;;;43.50;5.28;;;9.50;92.80;;;;;;5028087;28;20060;-68
2022/03/27 07:58:55;;;;;;;45.25;5.95;;;9.50;92.90;;;;;;5022914;28;20029;-67
2022/03/27 08:01:22;;;;;;;44.58;5.63;;;9.50;92.90;;;;;;5009164;28;20069;-67
2022/03/27 08:03:49;;;;;;;42.10;5.50;;;9.50;92.90;;;;;;5031711;28;20029;-67
2022/03/27 08:06:15;;;;;;;32.03;4.18;;;9.60;93.00;;;;;;5032220;28;20033;-67
2022/03/27 08:08:42;;;;;;;41.17;5.53;;;9.60;93.10;;;;;;5019087;28;20036;-67
2022/03/27 08:11:08;;;;;;;37.92;5.28;;;9.60;93.10;;;;;;5025500;28;20087;-67
2022/03/27 08:13:34;;;;;;;42.85;5.63;;;9.70;93.10;;;;;;5032633;28;20384;-67
2022/03/27 08:16:00;;;;;;;49.38;6.10;;;9.70;93.20;;;;;;5021236;28;20045;-67
2022/03/27 08:18:28;;;;;;;21.40;5.03;;;9.80;93.30;;;;;;5012996;28;20018;-65
2022/03/27 08:20:54;;;;;;;37.47;7.05;;;9.80;93.00;;;;;;5027944;28;20033;-66
2022/03/27 08:23:19;;;;;;;38.17;6.18;;;9.80;93.00;;;;;;5031943;28;20026;-68
2022/03/27 08:28:29;;;;;;;33.55;5.50;;;9.90;93.20;;;;;;5032254;28;20036;-66
2022/03/27 08:30:55;;;;;;;33.30;5.25;;;10.00;93.10;;;;;;5032943;28;20033;-69
2022/03/27 08:33:20;;;;;;;47.47;6.30;;;10.00;93.10;;;;;;5032892;28;20017;-69
2022/03/27 08:35:46;;;;;;;35.13;4.97;;;10.00;93.10;;;;;;5026850;28;20172;-66
2022/03/27 08:38:13;;;;;;;27.15;5.07;;;10.10;93.20;;;;;;5032763;28;20532;-67
2022/03/27 08:40:42;;;;;;;33.60;5.05;;;10.10;93.20;;;;;;5031541;28;20611;-68
2022/03/27 08:43:10;;;;;;;34.85;5.85;;;10.10;93.10;;;;;;5031898;28;20032;-65
2022/03/27 08:45:36;;;;;;;30.05;5.60;;;10.20;93.10;;;;;;5022644;28;20061;-66
2022/03/27 08:48:04;;;;;;;51.75;5.70;;;10.20;93.00;;;;;;5026391;28;20046;-64
2022/03/27 08:50:37;;;;;;;43.20;5.35;;;10.20;93.00;;;;;;5012368;28;20045;-66
2022/03/27 08:53:07;;;;;;;37.33;5.60;;;10.20;93.10;;;;;;5017407;28;20457;-66
2022/03/27 08:55:58;;;;;;;49.47;7.82;;;10.20;93.10;;;;;;5032855;28;20061;-66
2022/03/27 08:58:38;;;;;;;24.40;4.28;;;10.30;93.10;;;;;;5032148;28;20650;-67
2022/03/27 09:01:04;;;;;;;33.60;4.32;;;10.30;93.10;;;;;;5013361;28;20112;-73
2022/03/27 09:03:31;;;;;;;44.65;6.72;;;10.40;93.00;;;;;;5013248;28;20071;-66
2022/03/27 09:05:57;;;;;;;39.85;5.07;;;10.40;93.00;;;;;;5012121;28;20121;-67
2022/03/27 09:08:23;;;;;;;33.90;4.82;;;10.50;93.00;;;;;;5019139;28;20036;-67
2022/03/27 09:10:48;;;;;;;56.53;5.78;;;10.50;92.90;;;;;;5024310;28;20029;-70
2022/03/27 09:13:16;;;;;;;31.42;5.10;;;10.50;92.80;;;;;;5028381;28;20030;-69
2022/03/27 09:15:43;;;;;;;31.25;5.25;;;10.60;92.80;;;;;;5013018;28;20038;-65
2022/03/27 09:18:14;;;;;;;40.67;5.30;;;10.60;92.70;;;;;;5030486;28;20041;-66
2022/03/27 09:20:53;;;;;;;46.20;7.30;;;10.70;92.60;;;;;;5020124;28;20030;-66
2022/03/27 09:23:30;;;;;;;23.80;4.43;;;10.70;92.60;;;;;;5019884;28;20033;-66
2022/03/27 09:26:07;;;;;;;38.58;5.18;;;10.70;92.50;;;;;;5018673;28;20053;-66
2022/03/27 09:28:41;;;;;;;39.55;6.63;;;10.80;92.50;;;;;;5031782;28;20118;-66
2022/03/27 09:31:13;;;;;;;38.97;4.93;;;10.90;92.40;;;;;;5018826;28;20029;-67
2022/03/27 09:33:52;;;;;;;22.95;4.60;;;10.90;92.40;;;;;;5033656;28;20036;-66
2022/03/27 09:36:32;;;;;;;31.13;4.80;;;10.90;92.30;;;;;;5012320;28;20041;-66
2022/03/27 09:39:10;;;;;;;31.38;4.25;;;11.00;92.20;;;;;;5028904;28;20102;-69
2022/03/27 09:41:47;;;;;;;43.17;7.65;;;11.00;92.00;;;;;;5031067;28;20041;-66
2022/03/27 09:44:22;;;;;;;41.88;6.03;;;11.10;92.00;;;;;;5030945;28;20029;-66
2022/03/27 09:47:13;;;;;;;36.50;6.00;;;11.10;92.00;;;;;;5028422;28;20508;-67
2022/03/27 09:49:44;;;;;;;26.88;5.05;;;11.10;92.00;;;;;;5030427;28;20037;-65
2022/03/27 09:52:19;;;;;;;35.97;4.40;;;11.10;91.90;;;;;;5031020;28;20033;-64
2022/03/27 09:54:53;;;;;;;24.52;5.20;;;11.20;91.80;;;;;;5027673;28;20116;-64
2022/03/27 09:57:31;;;;;;;26.98;4.40;;;11.20;91.80;;;;;;5030346;28;20037;-64
2022/03/27 10:00:18;;;;;;;34.70;4.90;;;11.20;91.60;;;;;;5030012;28;20484;-64
2022/03/27 10:02:46;;;;;;;36.33;5.25;;;11.30;91.50;;;;;;5030042;28;20094;-64
2022/03/27 10:05:16;;;;;;;30.55;5.28;;;11.30;91.50;;;;;;5030384;28;20041;-64
2022/03/27 10:07:47;;;;;;;38.15;5.65;;;11.40;91.50;;;;;;5028813;28;20128;-64
2022/03/27 10:10:14;;;;;;;29.88;5.10;;;11.40;91.40;;;;;;5030102;28;20116;-64
2022/03/27 10:12:42;;;;;;;33.40;4.38;;;11.40;91.40;;;;;;5029986;28;20499;-64
2022/03/27 10:15:16;;;;;;;34.50;5.07;;;11.50;91.50;;;;;;5029409;28;20473;-64
2022/03/27 10:17:46;;;;;;;32.47;4.93;;;11.50;91.40;;;;;;5027974;28;20112;-64
2022/03/27 10:20:13;;;;;;;36.53;4.75;;;11.60;91.50;;;;;;5030638;28;20021;-64
2022/03/27 10:22:47;;;;;;;29.15;4.28;;;11.60;91.40;;;;;;5029565;28;20420;-64
2022/03/27 10:25:16;;;;;;;28.98;4.70;;;11.60;91.40;;;;;;5029825;28;20481;-64
2022/03/27 10:27:45;;;;;;;25.65;4.72;;;11.70;91.30;;;;;;5027658;28;20033;-64
2022/03/27 10:30:14;;;;;;;39.22;5.15;;;11.70;91.30;;;;;;5029743;28;20030;-65
2022/03/27 10:32:41;;;;;;;34.40;5.22;;;11.70;90.80;;;;;;5029781;28;20507;-64
2022/03/27 10:35:35;;;;;;;35.30;4.63;;;11.70;90.70;;;;;;5029394;28;20088;-67
2022/03/27 10:38:13;;;;;;;30.77;4.45;;;11.80;90.70;;;;;;5029401;28;20489;-66
2022/03/27 10:41:19;;;;;;;28.95;5.85;;;11.90;90.60;;;;;;5014642;28;20511;-66
2022/03/27 10:44:27;;;;;;;25.30;4.25;;;11.90;90.70;;;;;;5023744;28;20116;-67
2022/03/27 10:47:17;;;;;;;30.73;4.20;;;11.90;90.70;;;;;;5009623;28;20505;-66
2022/03/27 10:50:05;;;;;;;29.00;4.80;;;11.90;90.90;;;;;;5029469;28;20129;-69
2022/03/27 10:52:34;;;;;;;35.75;6.55;;;12.00;90.60;;;;;;5030657;28;20063;-68
2022/03/27 10:55:14;;;;;;;32.25;5.72;;;12.00;90.40;;;;;;5030655;28;20060;-67
2022/03/27 10:57:42;;;;;;;19.67;4.03;;;12.00;90.30;;;;;;5023317;28;20034;-67
2022/03/27 11:00:10;;;;;;;28.80;4.80;;;12.10;90.30;;;;;;5017398;28;20037;-67
2022/03/27 11:02:50;;;;;;;25.02;4.47;;;12.10;90.20;;;;;;5030897;28;20511;-67
2022/03/27 11:05:37;;;;;;;18.15;3.58;;;12.20;89.80;;;;;;5018485;28;20037;-67
2022/03/27 11:08:18;;;;;;;22.27;3.42;;;12.20;89.10;;;;;;5030140;28;20053;-79
2022/03/27 11:10:49;;;;;;;22.13;3.85;;;12.30;88.30;;;;;;5025939;28;20462;-67
2022/03/27 11:13:27;;;;;;;26.38;4.20;;;12.30;88.60;;;;;;5017450;28;20034;-66
2022/03/27 11:16:05;;;;;;;17.30;3.33;;;12.30;88.20;;;;;;5020313;28;20046;-66
2022/03/27 11:18:38;;;;;;;19.25;2.95;;;12.30;87.80;;;;;;5028801;28;20762;-67
2022/03/27 11:21:04;;;;;;;24.80;4.20;;;12.40;87.60;;;;;;5030624;28;20041;-66
2022/03/27 11:23:33;;;;;;;12.85;3.30;;;12.40;87.90;;;;;;5017477;28;20273;-66
2022/03/27 11:26:01;;;;;;;16.27;3.22;;;12.40;87.10;;;;;;5028317;28;20037;-66
2022/03/27 11:28:43;;;;;;;19.95;3.42;;;12.40;87.90;;;;;;5028731;28;20091;-67
2022/03/27 11:31:09;;;;;;;20.23;3.45;;;12.40;87.20;;;;;;5029666;28;20028;-66
2022/03/27 11:33:35;;;;;;;24.08;3.78;;;12.40;87.70;;;;;;5027078;28;20485;-66
2022/03/27 11:36:09;;;;;;;22.13;3.78;;;12.40;88.00;;;;;;5028809;28;20079;-65
2022/03/27 11:38:54;;;;;;;16.98;2.25;;;12.50;86.50;;;;;;5030890;28;20021;-66
2022/03/27 11:41:43;;;;;;;15.52;2.95;;;12.60;86.80;;;;;;5032756;28;20038;-66
2022/03/27 11:44:23;;;;;;;23.52;3.63;;;12.60;85.80;;;;;;5031513;28;20434;-65
2022/03/27 11:46:52;;;;;;;20.67;3.47;;;12.60;86.30;;;;;;5031661;28;20043;-68
2022/03/27 11:49:23;;;;;;;9.57;2.30;;;12.50;84.60;;;;;;5032750;28;20034;-66
2022/03/27 11:52:10;;;;;;;9.93;2.33;;;12.60;85.50;;;;;;5027352;28;20026;-66
2022/03/27 11:54:36;;;;;;;20.92;3.10;;;12.60;83.40;;;;;;5015412;28;20030;-65
2022/03/27 11:57:03;;;;;;;22.65;3.10;;;12.60;84.10;;;;;;5033392;28;20064;-65
2022/03/27 11:59:31;;;;;;;19.20;2.67;;;12.70;85.10;;;;;;5020382;28;20025;-66
2022/03/27 12:02:03;;;;;;;14.55;2.85;;;12.60;85.50;;;;;;5034202;28;20051;-65
2022/03/27 12:04:29;;;;;;;11.38;2.50;;;12.70;86.10;;;;;;5029348;28;20029;-65
2022/03/27 12:06:56;;;;;;;24.20;3.67;;;12.70;86.60;;;;;;5013584;28;20044;-65
2022/03/27 12:09:27;;;;;;;20.17;3.33;;;12.70;87.60;;;;;;5020094;28;20048;-66
2022/03/27 12:12:10;;;;;;;16.95;2.90;;;12.60;85.90;;;;;;5014403;28;20038;-65
2022/03/27 12:14:56;;;;;;;18.08;3.33;;;12.70;85.80;;;;;;5024201;28;20033;-66
2022/03/27 12:17:23;;;;;;;15.48;3.13;;;12.70;86.90;;;;;;5020633;28;20133;-66
2022/03/27 12:20:06;;;;;;;16.52;2.97;;;12.80;87.40;;;;;;5021884;28;20041;-65
2022/03/27 12:22:37;;;;;;;19.05;3.30;;;12.80;87.70;;;;;;5020495;28;20029;-65
2022/03/27 12:25:07;;;;;;;15.07;2.67;;;12.80;87.90;;;;;;5032437;28;20033;-65
2022/03/27 12:30:20;;;;;;;25.13;3.63;;;12.80;87.80;;;;;;5028115;28;20040;-67
2022/03/27 12:32:47;;;;;;;14.25;2.88;;;12.80;88.20;;;;;;5032633;28;20531;-68
2022/03/27 12:35:21;;;;;;;24.17;3.75;;;12.90;87.90;;;;;;5032300;28;20025;-65
2022/03/27 12:37:46;;;;;;;27.77;2.92;;;12.90;87.70;;;;;;5021162;28;20830;-65
2022/03/27 12:40:12;;;;;;;26.33;4.72;;;13.00;88.10;;;;;;5013595;28;20044;-66
2022/03/27 12:42:43;;;;;;;24.15;2.92;;;12.90;85.90;;;;;;5012785;28;20457;-65
2022/03/27 12:45:16;;;;;;;17.45;2.90;;;13.00;86.10;;;;;;5032601;28;20037;-65
2022/03/27 12:47:55;;;;;;;22.73;2.92;;;13.10;87.30;;;;;;5020028;28;20104;-66
2022/03/27 12:50:32;;;;;;;26.60;4.28;;;13.10;87.70;;;;;;5017174;28;20080;-65
2022/03/27 12:53:03;;;;;;;25.27;3.65;;;13.20;87.20;;;;;;5013398;28;20421;-65
2022/03/27 12:55:42;;;;;;;22.45;2.95;;;13.30;87.30;;;;;;5012731;28;20046;-65
2022/03/27 12:58:08;;;;;;;7.72;1.88;;;13.20;87.10;;;;;;5026062;28;20515;-68
2022/03/27 13:00:40;;;;;;;16.08;2.17;;;13.30;88.40;;;;;;5031729;28;20109;-67
2022/03/27 13:03:17;;;;;;;5.30;1.38;;;13.30;89.40;;;;;;5031387;28;20052;-68
2022/03/27 13:06:01;;;;;;;18.73;2.97;;;13.40;90.10;;;;;;5031936;28;20091;-68